createdAt,value
2022-09-03T00:00:36.963Z,95.80
2022-09-03T00:10:53.177Z,93.70
2022-09-03T00:21:09.553Z,93.40
2022-09-03T00:31:25.682Z,90.90
2022-09-03T00:41:42.490Z,84.90
2022-09-03T00:51:59.904Z,83.20
2022-09-03T01:02:18.903Z,81.90
2022-09-03T01:12:36.264Z,77.00
2022-09-03T01:23:26.637Z,79.10
2022-09-03T01:33:41.966Z,83.00
2022-09-03T01:44:00.168Z,89.70
2022-09-03T01:54:41.058Z,92.40
2022-09-03T02:05:02.172Z,93.30
2022-09-03T02:15:15.322Z,93.90
2022-09-03T02:25:22.543Z,95.40
2022-09-03T02:35:31.332Z,96.10
2022-09-03T02:45:41.107Z,97.20
2022-09-03T02:55:50.050Z,97.60
2022-09-03T03:05:59.303Z,97.90
2022-09-03T03:16:09.924Z,97.70
2022-09-03T03:26:20.152Z,96.90
2022-09-03T03:36:30.433Z,96.00
2022-09-03T03:46:38.786Z,96.50
2022-09-03T03:56:55.433Z,97.50
2022-09-03T04:07:03.317Z,97.90
2022-09-03T04:17:12.151Z,97.90
2022-09-03T04:27:49.791Z,97.10
2022-09-03T04:38:07.958Z,97.20
2022-09-03T05:11:40.055Z,97.60
2022-09-03T05:34:29.695Z,99.10
2022-09-03T05:44:44.071Z,99.00
2022-09-03T05:55:03.501Z,99.10
2022-09-03T06:05:14.866Z,99.30
2022-09-03T06:15:27.183Z,99.40
2022-09-03T06:25:35.497Z,96.60
2022-09-03T06:35:45.734Z,95.70
2022-09-03T06:46:08.455Z,94.90
2022-09-03T07:18:26.268Z,91.80
2022-09-03T07:41:29.365Z,93.40
2022-09-03T08:14:35.740Z,94.00
2022-09-03T08:24:57.336Z,94.00
2022-09-03T08:35:20.315Z,93.80
2022-09-03T08:56:37.770Z,93.00
2022-09-03T09:06:53.324Z,92.90
2022-09-03T10:18:54.217Z,91.70
2022-09-03T10:30:07.648Z,91.90
2022-09-03T10:53:36.617Z,91.60
2022-09-03T11:28:13.070Z,90.20
2022-09-03T11:51:25.714Z,89.30
2022-09-03T14:43:00.600Z,88.70
2022-09-03T15:18:24.816Z,89.20
2022-09-03T15:29:27.028Z,89.20
2022-09-03T16:15:47.712Z,89.00
2022-09-03T16:26:01.516Z,86.70
2022-09-03T16:36:26.591Z,86.30
2022-09-03T16:59:39.072Z,91.60
2022-09-03T17:26:22.960Z,93.00
2022-09-03T17:48:28.853Z,90.50
2022-09-03T17:59:09.531Z,87.70
2022-09-03T18:09:29.656Z,81.90
2022-09-03T18:19:59.222Z,78.80
2022-09-03T20:17:11.304Z,75.00
2022-09-03T20:27:29.603Z,76.10
2022-09-03T20:38:01.595Z,73.90
2022-09-03T20:48:26.277Z,72.30
2022-09-03T20:59:04.520Z,71.70
2022-09-03T21:10:23.457Z,72.30
2022-09-03T21:21:48.948Z,72.00
2022-09-03T21:32:14.814Z,71.30
2022-09-03T21:42:29.626Z,70.40
2022-09-03T21:52:45.143Z,69.10
2022-09-03T22:02:55.802Z,67.70
2022-09-03T22:13:15.796Z,66.40
2022-09-03T22:23:43.889Z,66.10
2022-09-03T22:33:59.481Z,64.30
2022-09-03T22:44:20.664Z,65.20
2022-09-03T22:54:47.213Z,65.70
2022-09-03T23:05:02.329Z,63.50
2022-09-03T23:15:12.871Z,62.30
2022-09-03T23:25:24.804Z,58.80
2022-09-03T23:35:36.720Z,57.40
2022-09-03T23:45:51.946Z,55.40
2022-09-03T23:56:21.080Z,53.90
